sensor_id;sensor_type;location;lat;lon;timestamp;temperature;humidity
35463;DHT22;21578;47.892;9.970;2023-05-10T00:04:16;12.60;96.60
35463;DHT22;21578;47.892;9.970;2023-05-10T00:09:03;12.60;96.60
35463;DHT22;21578;47.892;9.970;2023-05-10T00:13:52;12.60;96.60
35463;DHT22;21578;47.892;9.970;2023-05-10T00:18:39;12.60;96.60
35463;DHT22;21578;47.892;9.970;2023-05-10T00:23:26;12.60;96.60
35463;DHT22;21578;47.892;9.970;2023-05-10T00:28:12;12.60;96.60
35463;DHT22;21578;47.892;9.970;2023-05-10T00:33:01;12.60;96.60
35463;DHT22;21578;47.892;9.970;2023-05-10T00:37:48;12.50;96.60
35463;DHT22;21578;47.892;9.970;2023-05-10T00:42:35;12.50;96.60
35463;DHT22;21578;47.892;9.970;2023-05-10T00:47:22;12.50;96.60
35463;DHT22;21578;47.892;9.970;2023-05-10T00:52:10;12.40;96.60
35463;DHT22;21578;47.892;9.970;2023-05-10T00:56:57;12.50;96.60
35463;DHT22;21578;47.892;9.970;2023-05-10T01:01:44;12.50;96.60
35463;DHT22;21578;47.892;9.970;2023-05-10T01:06:32;12.40;96.60
35463;DHT22;21578;47.892;9.970;2023-05-10T01:11:20;12.40;96.60
35463;DHT22;21578;47.892;9.970;2023-05-10T01:16:07;12.40;96.60
35463;DHT22;21578;47.892;9.970;2023-05-10T01:21:00;12.40;96.60
35463;DHT22;21578;47.892;9.970;2023-05-10T01:26:07;12.40;96.60
35463;DHT22;21578;47.892;9.970;2023-05-10T01:31:21;12.30;96.60
35463;DHT22;21578;47.892;9.970;2023-05-10T01:36:16;12.20;96.60
35463;DHT22;21578;47.892;9.970;2023-05-10T01:41:16;12.10;96.60
35463;DHT22;21578;47.892;9.970;2023-05-10T01:46:07;12.00;96.60
35463;DHT22;21578;47.892;9.970;2023-05-10T01:50:56;12.00;96.60
35463;DHT22;21578;47.892;9.970;2023-05-10T01:55:48;12.00;96.60
35463;DHT22;21578;47.892;9.970;2023-05-10T02:00:40;11.90;96.60
35463;DHT22;21578;47.892;9.970;2023-05-10T02:05:30;11.90;96.60
35463;DHT22;21578;47.892;9.970;2023-05-10T02:10:19;11.80;96.60
35463;DHT22;21578;47.892;9.970;2023-05-10T02:15:11;11.90;96.60
35463;DHT22;21578;47.892;9.970;2023-05-10T02:19:59;11.80;96.60
35463;DHT22;21578;47.892;9.970;2023-05-10T02:24:49;11.70;96.60
35463;DHT22;21578;47.892;9.970;2023-05-10T02:29:37;11.70;96.60
35463;DHT22;21578;47.892;9.970;2023-05-10T02:34:27;11.70;96.60
35463;DHT22;21578;47.892;9.970;2023-05-10T02:39:15;11.70;96.60
35463;DHT22;21578;47.892;9.970;2023-05-10T02:44:06;11.70;96.60
35463;DHT22;21578;47.892;9.970;2023-05-10T02:48:54;11.60;96.60
35463;DHT22;21578;47.892;9.970;2023-05-10T02:53:44;11.70;96.60
35463;DHT22;21578;47.892;9.970;2023-05-10T02:58:32;11.60;96.60
35463;DHT22;21578;47.892;9.970;2023-05-10T03:03:19;11.60;96.60
35463;DHT22;21578;47.892;9.970;2023-05-10T03:08:06;11.60;96.60
35463;DHT22;21578;47.892;9.970;2023-05-10T03:13:06;11.50;96.60
35463;DHT22;21578;47.892;9.970;2023-05-10T03:18:01;11.60;96.60
35463;DHT22;21578;47.892;9.970;2023-05-10T03:22:52;11.50;96.60
35463;DHT22;21578;47.892;9.970;2023-05-10T03:27:42;11.60;96.60
35463;DHT22;21578;47.892;9.970;2023-05-10T03:32:31;11.50;96.60
35463;DHT22;21578;47.892;9.970;2023-05-10T03:37:20;11.50;96.60
35463;DHT22;21578;47.892;9.970;2023-05-10T03:42:07;11.50;96.60
35463;DHT22;21578;47.892;9.970;2023-05-10T03:46:53;11.60;96.60
35463;DHT22;21578;47.892;9.970;2023-05-10T03:51:42;11.50;96.60
35463;DHT22;21578;47.892;9.970;2023-05-10T03:56:29;11.50;96.60
35463;DHT22;21578;47.892;9.970;2023-05-10T04:01:16;11.50;96.60
35463;DHT22;21578;47.892;9.970;2023-05-10T04:06:03;11.50;96.60
35463;DHT22;21578;47.892;9.970;2023-05-10T04:10:52;11.50;96.60
35463;DHT22;21578;47.892;9.970;2023-05-10T04:15:39;11.50;96.60
35463;DHT22;21578;47.892;9.970;2023-05-10T04:20:26;11.50;96.60
35463;DHT22;21578;47.892;9.970;2023-05-10T04:25:14;11.40;96.60
35463;DHT22;21578;47.892;9.970;2023-05-10T04:30:02;11.40;96.60
35463;DHT22;21578;47.892;9.970;2023-05-10T04:34:49;11.50;96.60
35463;DHT22;21578;47.892;9.970;2023-05-10T04:39:37;11.50;96.60
35463;DHT22;21578;47.892;9.970;2023-05-10T04:44:24;11.50;96.60
35463;DHT22;21578;47.892;9.970;2023-05-10T04:49:12;11.50;96.60
35463;DHT22;21578;47.892;9.970;2023-05-10T04:53:59;11.50;96.60
35463;DHT22;21578;47.892;9.970;2023-05-10T04:58:46;11.50;96.60
35463;DHT22;21578;47.892;9.970;2023-05-10T05:03:33;11.50;96.60
35463;DHT22;21578;47.892;9.970;2023-05-10T05:08:21;11.50;96.60
35463;DHT22;21578;47.892;9.970;2023-05-10T05:13:09;11.50;96.60
35463;DHT22;21578;47.892;9.970;2023-05-10T05:17:56;11.40;96.60
35463;DHT22;21578;47.892;9.970;2023-05-10T05:22:44;11.50;96.60
35463;DHT22;21578;47.892;9.970;2023-05-10T05:27:32;11.50;96.60
35463;DHT22;21578;47.892;9.970;2023-05-10T05:32:19;11.40;96.60
35463;DHT22;21578;47.892;9.970;2023-05-10T05:37:06;11.50;96.60
35463;DHT22;21578;47.892;9.970;2023-05-10T05:41:53;11.50;96.60
35463;DHT22;21578;47.892;9.970;2023-05-10T05:46:41;11.50;96.60
35463;DHT22;21578;47.892;9.970;2023-05-10T05:51:28;11.50;96.60
35463;DHT22;21578;47.892;9.970;2023-05-10T05:56:16;11.60;96.60
35463;DHT22;21578;47.892;9.970;2023-05-10T06:01:09;11.60;96.60
35463;DHT22;21578;47.892;9.970;2023-05-10T06:05:57;11.60;96.60
35463;DHT22;21578;47.892;9.970;2023-05-10T06:10:44;11.70;96.60
35463;DHT22;21578;47.892;9.970;2023-05-10T06:15:31;11.70;96.60
35463;DHT22;21578;47.892;9.970;2023-05-10T06:20:19;11.80;96.60
35463;DHT22;21578;47.892;9.970;2023-05-10T06:25:08;11.80;96.60
35463;DHT22;21578;47.892;9.970;2023-05-10T06:29:55;11.90;96.60
35463;DHT22;21578;47.892;9.970;2023-05-10T06:34:42;12.00;96.60
35463;DHT22;21578;47.892;9.970;2023-05-10T06:39:30;12.00;96.60
35463;DHT22;21578;47.892;9.970;2023-05-10T06:44:18;12.00;96.60
35463;DHT22;21578;47.892;9.970;2023-05-10T06:49:05;12.00;96.60
35463;DHT22;21578;47.892;9.970;2023-05-10T06:53:52;12.10;96.60
35463;DHT22;21578;47.892;9.970;2023-05-10T06:58:39;12.10;96.60
35463;DHT22;21578;47.892;9.970;2023-05-10T07:03:27;12.20;96.60
35463;DHT22;21578;47.892;9.970;2023-05-10T07:08:14;12.20;96.60
35463;DHT22;21578;47.892;9.970;2023-05-10T07:13:00;12.20;96.60
35463;DHT22;21578;47.892;9.970;2023-05-10T07:17:47;12.20;96.60
35463;DHT22;21578;47.892;9.970;2023-05-10T07:22:36;12.20;96.60
35463;DHT22;21578;47.892;9.970;2023-05-10T07:27:22;12.20;96.60
35463;DHT22;21578;47.892;9.970;2023-05-10T07:32:09;12.30;96.60
35463;DHT22;21578;47.892;9.970;2023-05-10T07:36:58;12.40;96.60
35463;DHT22;21578;47.892;9.970;2023-05-10T07:41:46;12.30;96.60
35463;DHT22;21578;47.892;9.970;2023-05-10T07:46:33;12.30;96.60
35463;DHT22;21578;47.892;9.970;2023-05-10T07:51:20;12.30;96.60
35463;DHT22;21578;47.892;9.970;2023-05-10T07:56:22;12.40;96.60
35463;DHT22;21578;47.892;9.970;2023-05-10T08:01:11;12.50;96.60
35463;DHT22;21578;47.892;9.970;2023-05-10T08:05:58;12.60;96.60
35463;DHT22;21578;47.892;9.970;2023-05-10T08:10:45;12.60;96.60
35463;DHT22;21578;47.892;9.970;2023-05-10T08:15:32;12.60;96.60
35463;DHT22;21578;47.892;9.970;2023-05-10T08:20:20;12.50;96.60
35463;DHT22;21578;47.892;9.970;2023-05-10T08:25:08;12.50;96.60
35463;DHT22;21578;47.892;9.970;2023-05-10T08:29:54;12.60;96.60
35463;DHT22;21578;47.892;9.970;2023-05-10T08:34:41;12.70;96.60
35463;DHT22;21578;47.892;9.970;2023-05-10T08:39:33;12.80;96.60
35463;DHT22;21578;47.892;9.970;2023-05-10T08:44:20;12.90;96.60
35463;DHT22;21578;47.892;9.970;2023-05-10T08:49:07;13.00;96.60
35463;DHT22;21578;47.892;9.970;2023-05-10T08:53:55;13.00;96.60
35463;DHT22;21578;47.892;9.970;2023-05-10T08:58:43;13.00;96.60
35463;DHT22;21578;47.892;9.970;2023-05-10T09:03:31;12.90;96.60
35463;DHT22;21578;47.892;9.970;2023-05-10T09:08:18;12.90;96.60
35463;DHT22;21578;47.892;9.970;2023-05-10T09:13:05;12.90;96.60
35463;DHT22;21578;47.892;9.970;2023-05-10T09:17:55;12.90;96.60
35463;DHT22;21578;47.892;9.970;2023-05-10T09:22:43;12.90;96.60
35463;DHT22;21578;47.892;9.970;2023-05-10T09:27:30;13.00;96.60
35463;DHT22;21578;47.892;9.970;2023-05-10T09:32:17;13.00;96.60
35463;DHT22;21578;47.892;9.970;2023-05-10T09:37:05;13.10;96.60
35463;DHT22;21578;47.892;9.970;2023-05-10T09:41:53;13.10;96.60
35463;DHT22;21578;47.892;9.970;2023-05-10T09:46:40;13.20;96.60
35463;DHT22;21578;47.892;9.970;2023-05-10T09:51:27;13.30;96.60
35463;DHT22;21578;47.892;9.970;2023-05-10T09:56:32;13.30;96.60
35463;DHT22;21578;47.892;9.970;2023-05-10T10:01:19;13.50;96.60
35463;DHT22;21578;47.892;9.970;2023-05-10T10:06:07;13.50;96.60
35463;DHT22;21578;47.892;9.970;2023-05-10T10:10:54;13.60;96.60
35463;DHT22;21578;47.892;9.970;2023-05-10T10:15:43;13.60;96.60
35463;DHT22;21578;47.892;9.970;2023-05-10T10:20:31;13.60;96.60
35463;DHT22;21578;47.892;9.970;2023-05-10T10:25:20;13.60;96.60
35463;DHT22;21578;47.892;9.970;2023-05-10T10:30:14;13.50;96.60
35463;DHT22;21578;47.892;9.970;2023-05-10T10:35:06;13.40;96.60
35463;DHT22;21578;47.892;9.970;2023-05-10T10:39:55;13.60;96.60
35463;DHT22;21578;47.892;9.970;2023-05-10T10:44:42;13.60;96.60
35463;DHT22;21578;47.892;9.970;2023-05-10T10:49:31;13.60;96.60
35463;DHT22;21578;47.892;9.970;2023-05-10T10:54:27;13.60;96.60
35463;DHT22;21578;47.892;9.970;2023-05-10T10:59:26;13.80;96.60
35463;DHT22;21578;47.892;9.970;2023-05-10T11:04:18;13.60;96.60
35463;DHT22;21578;47.892;9.970;2023-05-10T11:09:06;13.50;96.60
35463;DHT22;21578;47.892;9.970;2023-05-10T11:14:03;13.40;96.60
35463;DHT22;21578;47.892;9.970;2023-05-10T11:18:54;13.20;96.60
35463;DHT22;21578;47.892;9.970;2023-05-10T11:23:50;12.20;96.60
35463;DHT22;21578;47.892;9.970;2023-05-10T11:28:41;11.40;96.60
35463;DHT22;21578;47.892;9.970;2023-05-10T11:33:30;11.20;96.60
35463;DHT22;21578;47.892;9.970;2023-05-10T11:38:17;11.10;96.60
35463;DHT22;21578;47.892;9.970;2023-05-10T11:43:04;11.10;96.60
35463;DHT22;21578;47.892;9.970;2023-05-10T11:47:51;11.10;96.60
35463;DHT22;21578;47.892;9.970;2023-05-10T11:52:40;11.30;96.60
35463;DHT22;21578;47.892;9.970;2023-05-10T11:57:27;11.20;96.60
35463;DHT22;21578;47.892;9.970;2023-05-10T12:02:14;11.20;96.60
35463;DHT22;21578;47.892;9.970;2023-05-10T12:07:01;11.00;96.60
35463;DHT22;21578;47.892;9.970;2023-05-10T12:11:55;11.00;96.60
35463;DHT22;21578;47.892;9.970;2023-05-10T12:16:43;11.00;96.60
35463;DHT22;21578;47.892;9.970;2023-05-10T12:21:30;11.00;96.60
35463;DHT22;21578;47.892;9.970;2023-05-10T12:26:17;11.10;96.60
35463;DHT22;21578;47.892;9.970;2023-05-10T12:31:06;11.10;96.60
35463;DHT22;21578;47.892;9.970;2023-05-10T12:35:54;11.20;96.60
35463;DHT22;21578;47.892;9.970;2023-05-10T12:40:41;11.20;96.60
35463;DHT22;21578;47.892;9.970;2023-05-10T12:45:29;11.20;96.60
35463;DHT22;21578;47.892;9.970;2023-05-10T12:50:17;11.30;96.60
35463;DHT22;21578;47.892;9.970;2023-05-10T12:55:04;11.50;96.60
35463;DHT22;21578;47.892;9.970;2023-05-10T12:59:52;11.60;96.60
35463;DHT22;21578;47.892;9.970;2023-05-10T13:04:39;11.80;96.60
35463;DHT22;21578;47.892;9.970;2023-05-10T13:09:27;12.00;96.60
35463;DHT22;21578;47.892;9.970;2023-05-10T13:14:15;12.10;96.60
35463;DHT22;21578;47.892;9.970;2023-05-10T13:19:01;12.40;96.60
35463;DHT22;21578;47.892;9.970;2023-05-10T13:23:49;12.60;96.60
35463;DHT22;21578;47.892;9.970;2023-05-10T13:28:37;12.60;96.60
35463;DHT22;21578;47.892;9.970;2023-05-10T13:33:24;12.70;96.60
35463;DHT22;21578;47.892;9.970;2023-05-10T13:38:11;12.70;96.60
35463;DHT22;21578;47.892;9.970;2023-05-10T13:42:59;12.70;96.60
35463;DHT22;21578;47.892;9.970;2023-05-10T13:47:47;12.80;96.60
35463;DHT22;21578;47.892;9.970;2023-05-10T13:52:34;12.90;96.60
35463;DHT22;21578;47.892;9.970;2023-05-10T13:57:21;13.00;96.60
35463;DHT22;21578;47.892;9.970;2023-05-10T14:02:08;13.10;96.60
35463;DHT22;21578;47.892;9.970;2023-05-10T14:06:57;13.10;96.60
35463;DHT22;21578;47.892;9.970;2023-05-10T14:11:44;13.20;96.60
35463;DHT22;21578;47.892;9.970;2023-05-10T14:16:31;13.10;96.60
35463;DHT22;21578;47.892;9.970;2023-05-10T14:21:18;13.00;96.60
35463;DHT22;21578;47.892;9.970;2023-05-10T14:26:06;13.00;96.60
35463;DHT22;21578;47.892;9.970;2023-05-10T14:30:54;13.00;96.60
35463;DHT22;21578;47.892;9.970;2023-05-10T14:35:41;13.10;96.60
35463;DHT22;21578;47.892;9.970;2023-05-10T14:40:27;13.00;96.60
35463;DHT22;21578;47.892;9.970;2023-05-10T14:45:16;12.60;96.60
35463;DHT22;21578;47.892;9.970;2023-05-10T14:50:03;11.80;96.60
35463;DHT22;21578;47.892;9.970;2023-05-10T14:54:50;11.50;96.60
35463;DHT22;21578;47.892;9.970;2023-05-10T14:59:37;11.20;96.60
35463;DHT22;21578;47.892;9.970;2023-05-10T15:04:26;10.90;96.60
35463;DHT22;21578;47.892;9.970;2023-05-10T15:09:13;10.70;96.60
35463;DHT22;21578;47.892;9.970;2023-05-10T15:14:01;10.70;96.60
35463;DHT22;21578;47.892;9.970;2023-05-10T15:18:48;10.60;96.60
35463;DHT22;21578;47.892;9.970;2023-05-10T15:23:36;10.70;96.60
35463;DHT22;21578;47.892;9.970;2023-05-10T15:28:23;10.80;96.60
35463;DHT22;21578;47.892;9.970;2023-05-10T15:33:10;10.80;96.60
35463;DHT22;21578;47.892;9.970;2023-05-10T15:37:57;10.80;96.60
35463;DHT22;21578;47.892;9.970;2023-05-10T15:42:45;10.90;96.60
35463;DHT22;21578;47.892;9.970;2023-05-10T15:47:32;11.00;96.60
35463;DHT22;21578;47.892;9.970;2023-05-10T15:52:20;11.10;96.60
35463;DHT22;21578;47.892;9.970;2023-05-10T15:57:08;11.10;96.60
35463;DHT22;21578;47.892;9.970;2023-05-10T16:01:56;11.20;96.60
35463;DHT22;21578;47.892;9.970;2023-05-10T16:06:43;11.40;96.60
35463;DHT22;21578;47.892;9.970;2023-05-10T16:11:30;11.50;96.60
35463;DHT22;21578;47.892;9.970;2023-05-10T16:16:17;11.60;96.60
35463;DHT22;21578;47.892;9.970;2023-05-10T16:21:05;11.70;96.60
35463;DHT22;21578;47.892;9.970;2023-05-10T16:25:52;11.70;96.60
35463;DHT22;21578;47.892;9.970;2023-05-10T16:30:39;11.70;96.60
35463;DHT22;21578;47.892;9.970;2023-05-10T16:35:26;11.70;96.60
35463;DHT22;21578;47.892;9.970;2023-05-10T16:40:15;11.70;96.60
35463;DHT22;21578;47.892;9.970;2023-05-10T16:45:03;11.70;96.60
35463;DHT22;21578;47.892;9.970;2023-05-10T16:49:53;11.70;96.60
35463;DHT22;21578;47.892;9.970;2023-05-10T16:54:40;11.70;96.60
35463;DHT22;21578;47.892;9.970;2023-05-10T16:59:28;11.80;96.60
35463;DHT22;21578;47.892;9.970;2023-05-10T17:04:15;11.80;96.60
35463;DHT22;21578;47.892;9.970;2023-05-10T17:09:03;11.80;96.60
35463;DHT22;21578;47.892;9.970;2023-05-10T17:13:50;11.80;96.60
35463;DHT22;21578;47.892;9.970;2023-05-10T17:18:39;11.80;96.60
35463;DHT22;21578;47.892;9.970;2023-05-10T17:23:27;11.80;96.60
35463;DHT22;21578;47.892;9.970;2023-05-10T17:28:14;11.70;96.60
35463;DHT22;21578;47.892;9.970;2023-05-10T17:33:01;11.80;96.60
35463;DHT22;21578;47.892;9.970;2023-05-10T17:37:50;11.80;96.60
35463;DHT22;21578;47.892;9.970;2023-05-10T17:42:36;11.80;96.60
35463;DHT22;21578;47.892;9.970;2023-05-10T17:47:24;11.80;96.60
35463;DHT22;21578;47.892;9.970;2023-05-10T17:52:10;11.80;96.60
35463;DHT22;21578;47.892;9.970;2023-05-10T17:56:59;11.80;96.60
35463;DHT22;21578;47.892;9.970;2023-05-10T18:01:46;11.80;96.60
35463;DHT22;21578;47.892;9.970;2023-05-10T18:06:35;11.70;96.60
35463;DHT22;21578;47.892;9.970;2023-05-10T18:11:22;11.70;96.60
35463;DHT22;21578;47.892;9.970;2023-05-10T18:16:10;11.70;96.60
35463;DHT22;21578;47.892;9.970;2023-05-10T18:20:57;11.60;96.60
35463;DHT22;21578;47.892;9.970;2023-05-10T18:25:45;11.50;96.60
35463;DHT22;21578;47.892;9.970;2023-05-10T18:30:32;11.40;96.60
35463;DHT22;21578;47.892;9.970;2023-05-10T18:35:20;11.50;96.60
35463;DHT22;21578;47.892;9.970;2023-05-10T18:40:08;11.50;96.60
35463;DHT22;21578;47.892;9.970;2023-05-10T18:44:58;11.30;96.60
35463;DHT22;21578;47.892;9.970;2023-05-10T18:49:45;11.40;96.60
35463;DHT22;21578;47.892;9.970;2023-05-10T18:54:33;11.30;96.60
35463;DHT22;21578;47.892;9.970;2023-05-10T18:59:20;11.10;96.60
35463;DHT22;21578;47.892;9.970;2023-05-10T19:04:07;11.00;96.60
35463;DHT22;21578;47.892;9.970;2023-05-10T19:08:54;10.80;96.60
35463;DHT22;21578;47.892;9.970;2023-05-10T19:13:42;10.80;96.60
35463;DHT22;21578;47.892;9.970;2023-05-10T19:18:29;10.80;96.60
35463;DHT22;21578;47.892;9.970;2023-05-10T19:23:16;10.70;96.60
35463;DHT22;21578;47.892;9.970;2023-05-10T19:28:03;10.70;96.60
35463;DHT22;21578;47.892;9.970;2023-05-10T19:32:51;10.70;96.60
35463;DHT22;21578;47.892;9.970;2023-05-10T19:37:38;10.70;96.60
35463;DHT22;21578;47.892;9.970;2023-05-10T19:42:30;10.80;96.60
35463;DHT22;21578;47.892;9.970;2023-05-10T19:47:17;10.70;96.60
35463;DHT22;21578;47.892;9.970;2023-05-10T19:52:05;10.80;96.60
35463;DHT22;21578;47.892;9.970;2023-05-10T19:56:55;10.80;96.60
35463;DHT22;21578;47.892;9.970;2023-05-10T20:01:41;10.80;96.60
35463;DHT22;21578;47.892;9.970;2023-05-10T20:06:28;10.80;96.60
35463;DHT22;21578;47.892;9.970;2023-05-10T20:11:17;10.70;96.60
35463;DHT22;21578;47.892;9.970;2023-05-10T20:16:04;10.70;96.60
35463;DHT22;21578;47.892;9.970;2023-05-10T20:20:56;10.60;96.60
35463;DHT22;21578;47.892;9.970;2023-05-10T20:25:43;10.60;96.60
35463;DHT22;21578;47.892;9.970;2023-05-10T20:30:32;10.60;96.60
35463;DHT22;21578;47.892;9.970;2023-05-10T20:35:19;10.60;96.60
35463;DHT22;21578;47.892;9.970;2023-05-10T20:40:06;10.60;96.60
35463;DHT22;21578;47.892;9.970;2023-05-10T20:44:53;10.60;96.60
35463;DHT22;21578;47.892;9.970;2023-05-10T20:49:42;10.50;96.60
35463;DHT22;21578;47.892;9.970;2023-05-10T20:54:29;10.40;96.60
35463;DHT22;21578;47.892;9.970;2023-05-10T20:59:16;10.40;96.60
35463;DHT22;21578;47.892;9.970;2023-05-10T21:04:03;10.40;96.60
35463;DHT22;21578;47.892;9.970;2023-05-10T21:08:51;10.30;96.60
35463;DHT22;21578;47.892;9.970;2023-05-10T21:13:38;10.30;96.60
35463;DHT22;21578;47.892;9.970;2023-05-10T21:18:25;10.30;96.60
35463;DHT22;21578;47.892;9.970;2023-05-10T21:23:12;10.30;96.60
35463;DHT22;21578;47.892;9.970;2023-05-10T21:28:00;10.20;96.60
35463;DHT22;21578;47.892;9.970;2023-05-10T21:32:47;10.20;96.60
35463;DHT22;21578;47.892;9.970;2023-05-10T21:37:34;10.20;96.60
35463;DHT22;21578;47.892;9.970;2023-05-10T21:42:21;10.20;96.60
35463;DHT22;21578;47.892;9.970;2023-05-10T21:47:09;10.20;96.60
35463;DHT22;21578;47.892;9.970;2023-05-10T21:51:56;10.10;96.60
35463;DHT22;21578;47.892;9.970;2023-05-10T21:56:43;10.10;96.60
35463;DHT22;21578;47.892;9.970;2023-05-10T22:01:30;10.10;96.60
35463;DHT22;21578;47.892;9.970;2023-05-10T22:06:18;10.10;96.60
35463;DHT22;21578;47.892;9.970;2023-05-10T22:11:05;10.00;96.60
35463;DHT22;21578;47.892;9.970;2023-05-10T22:15:52;9.90;96.60
35463;DHT22;21578;47.892;9.970;2023-05-10T22:20:39;9.90;96.60
35463;DHT22;21578;47.892;9.970;2023-05-10T22:25:27;9.80;96.60
35463;DHT22;21578;47.892;9.970;2023-05-10T22:30:15;9.80;96.60
35463;DHT22;21578;47.892;9.970;2023-05-10T22:35:02;9.80;96.60
35463;DHT22;21578;47.892;9.970;2023-05-10T22:39:49;9.80;96.60
35463;DHT22;21578;47.892;9.970;2023-05-10T22:44:38;9.70;96.60
35463;DHT22;21578;47.892;9.970;2023-05-10T22:49:25;9.70;96.60
35463;DHT22;21578;47.892;9.970;2023-05-10T22:54:12;9.70;96.60
35463;DHT22;21578;47.892;9.970;2023-05-10T22:58:59;9.60;96.60
35463;DHT22;21578;47.892;9.970;2023-05-10T23:03:47;9.70;96.60
35463;DHT22;21578;47.892;9.970;2023-05-10T23:08:34;9.70;96.60
35463;DHT22;21578;47.892;9.970;2023-05-10T23:13:21;9.70;96.60
35463;DHT22;21578;47.892;9.970;2023-05-10T23:18:09;9.70;96.60
35463;DHT22;21578;47.892;9.970;2023-05-10T23:22:58;9.60;96.60
35463;DHT22;21578;47.892;9.970;2023-05-10T23:27:45;9.60;96.60
35463;DHT22;21578;47.892;9.970;2023-05-10T23:32:32;9.60;96.60
35463;DHT22;21578;47.892;9.970;2023-05-10T23:37:19;9.60;96.60
35463;DHT22;21578;47.892;9.970;2023-05-10T23:42:07;9.70;96.60
35463;DHT22;21578;47.892;9.970;2023-05-10T23:46:54;9.60;96.60
35463;DHT22;21578;47.892;9.970;2023-05-10T23:51:41;9.60;96.60
